Latest Weather Observations for Wangaratta

IDV60801

Issued at 11:35 pm EST Wednesday 16 April 2014 (issued every 30 minutes, with the page automatically refreshed every 10 minutes)

About weather observations | Map of weather stations | Latest weather observations for VIC | Other Formats
Station Details ID: 082138 Name: WANGARATTA AERO Lat: -36.42 Lon: 146.31 Height: 152.6 m
Data from the previous 72 hours. | See also: Recent months at Wangaratta
Date/Time
EST
Temp
°C
App
Temp
°C
Dew
Point
Rel
Hum
%
Delta-T
°C
Wind Press
QNH
hPa
Press
MSL
hPa
Rain
since 9 am
mm
Dir
 
Spd
km/h
Gust
km/h
Spd
kts
Gust
kts
16/11:30pm 9.8 9.7 9.5 98 0.2 SW 0 0 0 0 1020.2 - 0.0
16/11:00pm 9.9 9.8 9.3 96 0.3 WSW 0 0 0 0 1020.3 - 0.0
16/10:30pm 10.0 9.8 9.1 94 0.4 CALM 0 0 0 0 1020.4 - 0.0
16/10:00pm 11.0 11.2 10.4 96 0.3 CALM 0 0 0 0 1020.5 - 0.0
16/09:30pm 11.1 11.2 10.3 95 0.4 CALM 0 0 0 0 1020.5 - 0.0
16/09:00pm 11.7 11.9 10.4 92 0.7 CALM 0 0 0 0 1020.4 1020.2 0.0
16/08:30pm 12.4 12.7 10.8 90 0.8 CALM 0 0 0 0 1020.2 - 0.0
16/08:00pm 13.0 13.0 11.2 89 1.0 S 2 6 1 3 1020.0 - 0.0
16/07:30pm 13.6 14.1 11.7 88 1.0 CALM 0 0 0 0 1019.8 - 0.0
16/07:00pm 14.7 15.3 11.8 83 1.6 CALM 0 0 0 0 1019.5 - 0.0
16/06:30pm 15.6 16.2 11.8 78 2.1 CALM 0 0 0 0 1019.3 - 0.0
16/06:00pm 16.6 16.9 10.9 69 3.1 CALM 0 0 0 0 1019.0 1018.8 0.0
16/05:30pm 18.0 18.3 10.9 63 3.9 CALM 0 0 0 0 1018.9 - 0.0
16/05:00pm 18.9 18.6 10.2 57 4.7 ESE 2 6 1 3 1018.6 - 0.0
16/04:30pm 18.9 19.1 10.5 58 4.6 CALM 0 0 0 0 1018.7 - 0.0
16/04:00pm 19.6 19.1 7.7 46 6.1 CALM 0 0 0 0 1018.6 - 0.0
16/03:30pm 19.5 19.2 8.5 49 5.8 CALM 0 6 0 3 1018.9 - 0.0
16/03:00pm 20.3 19.3 8.9 48 6.0 NNW 4 9 2 5 1019.0 1018.8 0.0
16/02:30pm 20.4 19.3 9.9 51 5.7 NW 6 9 3 5 1019.2 - 0.0
16/02:00pm 20.1 18.2 9.1 49 5.8 W 9 15 5 8 1019.3 - 0.0
16/01:30pm 19.7 19.9 10.4 55 5.1 CALM 0 0 0 0 1019.4 - 0.0
16/01:00pm 19.3 18.2 10.6 57 4.7 N 7 13 4 7 1019.9 - 0.0
16/12:30pm 19.6 18.6 11.1 58 4.7 N 7 15 4 8 1020.3 - 0.0
16/12:00pm 18.7 17.3 11.0 61 4.2 NNW 9 15 5 8 1020.7 1020.5 0.0
16/11:30am 18.1 16.0 11.0 63 3.9 N 13 19 7 10 1021.0 - 0.0
16/11:00am 17.2 14.4 10.1 63 3.8 N 15 22 8 12 1021.3 - 0.0
16/10:30am 16.7 15.1 10.3 66 3.4 N 9 15 5 8 1021.4 - 0.0
16/10:00am 16.2 15.3 10.5 69 3.0 E 6 11 3 6 1021.6 - 0.0
16/09:30am 14.2 12.9 9.2 72 2.6 SSE 6 9 3 5 1021.8 - 0.0
16/09:00am 13.2 13.0 9.1 76 2.1 S 0 6 0 3 1021.9 1021.8 0.0
16/08:30am 11.6 10.1 8.6 82 1.5 SSW 6 7 3 4 1021.9 - 0.0
16/08:00am 10.3 10.3 9.8 97 0.3 CALM 0 4 0 2 1021.6 - 0.0
16/07:30am 8.4 8.0 8.3 99 0.0 CALM 0 4 0 2 1021.3 - 0.0
16/07:00am 7.3 6.7 7.2 99 0.0 CALM 0 0 0 0 1021.0 - 0.0
16/06:30am 6.8 6.0 6.7 99 0.0 CALM 0 0 0 0 1020.9 - 0.0
16/06:00am 6.8 6.0 6.5 98 0.1 SW 0 0 0 0 1020.7 1020.5 0.0
16/05:30am 7.3 6.6 7.0 98 0.1 CALM 0 0 0 0 1020.4 - 0.0
16/05:00am 7.1 6.4 6.8 98 0.1 CALM 0 0 0 0 1020.3 - 0.0
16/04:30am 7.2 6.5 6.9 98 0.1 CALM 0 0 0 0 1020.1 - 0.0
16/04:00am 7.7 7.1 7.4 98 0.1 CALM 0 0 0 0 1020.1 - 0.0
16/03:30am 7.4 5.4 7.1 98 0.1 S 7 9 4 5 1019.9 - 0.0
16/03:00am 8.0 7.4 7.6 97 0.2 CALM 0 0 0 0 1020.1 1019.9 0.0
16/02:30am 8.3 7.8 7.9 97 0.2 CALM 0 0 0 0 1020.3 - 0.0
16/02:00am 8.4 7.9 7.8 96 0.3 CALM 0 0 0 0 1020.6 - 0.0
16/01:30am 8.4 7.8 7.3 93 0.5 CALM 0 0 0 0 1020.7 - 0.0
16/01:00am 9.0 8.6 8.1 94 0.4 CALM 0 0 0 0 1020.8 - 0.0
16/12:30am 9.3 8.5 8.2 93 0.5 SW 2 6 1 3 1020.8 - 0.0
16/12:00am 9.7 8.6 8.3 91 0.7 SSW 4 7 2 4 1021.0 1020.8 0.0
 
Date/Time
EST
Temp
°C
App
Temp
°C
Dew
Point
Rel
Hum
%
Delta-T
°C
Wind Press
QNH
hPa
Press
MSL
hPa
Rain
since 9 am
mm
Dir
 
Spd
km/h
Gust
km/h
Spd
kts
Gust
kts
15/11:30pm 10.4 10.2 9.0 91 0.7 CALM 0 6 0 3 1021.1 - 0.0
15/11:00pm 10.5 9.1 8.9 90 0.8 SW 6 7 3 4 1021.2 - 0.0
15/10:30pm 11.2 9.9 9.1 87 1.1 S 6 7 3 4 1021.2 - 0.0
15/10:00pm 11.7 10.5 9.6 87 1.1 SSW 6 7 3 4 1021.3 - 0.0
15/09:30pm 12.6 11.3 9.8 83 1.4 SE 7 7 4 4 1021.2 - 0.0
15/09:00pm 12.6 11.9 8.5 76 2.0 ESE 2 6 1 3 1021.0 1020.8 0.0
15/08:30pm 13.2 11.7 9.1 76 2.1 S 7 9 4 5 1020.8 - 0.0
15/08:00pm 13.6 11.7 8.9 73 2.4 SSE 9 11 5 6 1020.5 - 0.0
15/07:30pm 14.6 13.3 10.0 74 2.4 S 7 9 4 5 1020.3 - 0.0
15/07:00pm 14.5 13.3 9.7 73 2.5 WSW 6 7 3 4 1020.2 - 0.0
15/06:30pm 15.4 14.1 9.1 66 3.3 WSW 6 7 3 4 1019.9 - 0.0
15/06:00pm 16.8 14.6 9.5 62 3.8 SW 11 13 6 7 1019.9 1019.7 0.0
15/05:30pm 18.9 17.2 9.9 56 4.8 WSW 9 11 5 6 1019.8 - 0.0
15/05:00pm 20.8 19.1 8.4 45 6.5 W 7 11 4 6 1019.7 - 0.0
15/04:30pm 21.3 19.4 6.8 39 7.4 W 6 9 3 5 1019.6 - 0.0
15/04:00pm 20.8 18.9 7.4 42 6.9 SSW 7 11 4 6 1019.7 - 0.0
15/03:30pm 20.6 18.4 6.2 39 7.3 S 7 9 4 5 1019.8 - 0.0
15/03:00pm 20.8 18.4 7.1 41 7.0 S 9 15 5 8 1020.0 1019.8 0.0
15/02:30pm 20.7 18.0 5.5 37 7.6 S 9 13 5 7 1019.9 - 0.0
15/02:00pm 20.6 17.9 7.2 42 6.9 S 11 17 6 9 1020.0 - 0.0
15/01:30pm 20.0 17.5 6.7 42 6.8 SSE 9 15 5 8 1020.3 - 0.0
15/01:00pm 19.8 17.7 8.2 47 6.1 S 9 13 5 7 1020.6 - 0.0
15/12:30pm 19.2 17.5 7.6 47 6.0 S 6 11 3 6 1021.2 - 0.0
15/12:00pm 19.3 17.8 8.3 49 5.7 SSE 6 13 3 7 1021.8 1021.7 0.0
15/11:30am 18.5 17.3 7.9 50 5.5 ESE 4 9 2 5 1022.3 - 0.0
15/11:00am 17.3 15.6 8.4 56 4.6 S 7 11 4 6 1022.5 - 0.0
15/10:30am 16.2 14.3 7.4 56 4.4 SE 7 13 4 7 1022.8 - 0.0
15/10:00am 14.9 13.4 8.4 65 3.3 S 6 9 3 5 1023.0 - 0.0
15/09:30am 13.4 12.1 7.8 69 2.8 S 4 7 2 4 1023.1 - 0.0
15/09:00am 12.0 10.2 7.3 73 2.3 S 6 9 3 5 1023.2 1023.1 0.0
15/08:30am 10.6 9.0 8.2 85 1.2 SSW 6 7 3 4 1023.2 - 0.0
15/08:00am 9.2 7.4 8.0 92 0.6 SSW 7 9 4 5 1022.9 - 0.0
15/07:30am 7.3 5.8 6.7 96 0.3 SSW 4 7 2 4 1022.6 - 0.0
15/07:00am 6.4 5.4 5.8 96 0.3 CALM 0 0 0 0 1022.3 - 0.0
15/06:30am 6.2 5.2 5.5 95 0.3 CALM 0 0 0 0 1022.0 - 0.0
15/06:00am 6.3 5.3 5.4 94 0.4 CALM 0 0 0 0 1021.9 1021.8 0.0
15/05:30am 7.0 6.1 6.1 94 0.4 CALM 0 0 0 0 1021.8 - 0.0
15/05:00am 7.0 4.7 5.8 92 0.5 N 7 9 4 5 1021.6 - 0.0
15/04:30am 7.0 6.1 5.9 93 0.5 CALM 0 0 0 0 1021.4 - 0.0
15/04:00am 7.1 6.1 5.7 91 0.6 CALM 0 0 0 0 1021.2 - 0.0
15/03:30am 7.6 6.8 6.4 92 0.6 CALM 0 0 0 0 1021.1 - 0.0
15/03:00am 8.2 7.5 7.0 92 0.6 CALM 0 0 0 0 1020.9 1020.7 0.0
15/02:30am 8.5 7.8 7.0 90 0.7 CALM 0 0 0 0 1021.1 - 0.0
15/02:00am 8.3 7.6 6.8 90 0.7 CALM 0 0 0 0 1021.3 - 0.0
15/01:30am 9.2 7.4 7.0 86 1.0 SSW 6 6 3 3 1021.5 - 0.0
15/01:00am 9.7 7.7 7.1 84 1.2 SSW 7 9 4 5 1021.5 - 0.0
15/12:30am 9.9 8.0 7.5 85 1.2 SSW 7 9 4 5 1021.5 - 0.0
15/12:00am 10.2 8.3 7.4 83 1.3 SSW 7 9 4 5 1021.4 1021.3 0.0
 
Date/Time
EST
Temp
°C
App
Temp
°C
Dew
Point
Rel
Hum
%
Delta-T
°C
Wind Press
QNH
hPa
Press
MSL
hPa
Rain
since 9 am
mm
Dir
 
Spd
km/h
Gust
km/h
Spd
kts
Gust
kts
14/11:30pm 10.4 8.5 7.5 82 1.4 SSW 7 9 4 5 1021.5 - 0.0
14/11:00pm 10.5 8.6 7.6 82 1.4 SSW 7 9 4 5 1021.5 - 0.0
14/10:30pm 10.9 8.7 7.8 81 1.5 SSW 9 11 5 6 1021.6 - 0.0
14/10:00pm 10.7 8.6 8.3 85 1.2 SSW 9 13 5 7 1021.6 - 0.0
14/09:30pm 11.6 9.7 9.0 84 1.3 SSW 9 11 5 6 1021.7 - 0.0
14/09:00pm 11.8 10.2 8.6 81 1.6 SSW 7 9 4 5 1021.6 1021.5 0.0
14/08:30pm 11.9 10.5 9.6 86 1.2 SSW 7 9 4 5 1021.3 - 0.0
14/08:00pm 12.5 11.4 9.9 84 1.3 SW 6 7 3 4 1021.0 - 0.0
14/07:30pm 13.2 12.1 10.0 81 1.7 SE 6 7 3 4 1020.8 - 0.0
14/07:00pm 13.4 13.2 9.1 75 2.2 CALM 0 7 0 4 1020.5 - 0.0
14/06:30pm 14.4 12.9 10.4 77 2.1 WSW 9 9 5 5 1020.0 - 0.0
14/06:00pm 16.7 14.8 9.1 61 3.9 WSW 9 11 5 6 1019.8 1019.6 0.0
14/05:30pm 19.6 18.2 9.5 52 5.4 WSW 7 9 4 5 1019.6 - 0.0
14/05:00pm 20.5 19.5 7.5 43 6.7 S 2 6 1 3 1019.3 - 0.0
14/04:30pm 20.1 18.4 6.1 40 7.0 S 4 7 2 4 1019.4 - 0.0
14/04:00pm 20.6 18.4 6.2 39 7.3 SSW 7 9 4 5 1019.4 - 0.0
14/03:30pm 20.1 18.0 6.8 42 6.8 SSE 7 13 4 7 1019.5 - 0.0
14/03:00pm 20.0 16.9 5.6 39 7.1 S 11 17 6 9 1019.6 1019.4 0.0
14/02:30pm 20.1 16.4 6.1 40 7.0 SSW 15 20 8 11 1019.8 - 0.0
14/02:00pm 20.0 16.8 6.7 42 6.8 SE 13 20 7 11 1019.9 - 0.0
14/01:30pm 20.1 17.2 6.4 41 6.9 S 11 17 6 9 1020.2 - 0.0
14/01:00pm 19.6 17.2 7.0 44 6.4 S 9 15 5 8 1020.6 - 0.0
14/12:30pm 19.8 17.9 6.9 43 6.6 SE 6 11 3 6 1021.1 - 0.0
14/12:00pm 18.9 16.5 8.6 51 5.4 SE 11 17 6 9 1021.5 1021.4 0.0
14/11:30am 18.3 15.4 8.0 51 5.3 SSE 13 19 7 10 1021.8 - 0.0
14/11:00am 17.7 15.5 7.7 52 5.1 SE 9 15 5 8 1021.9 - 0.0
14/10:30am 17.2 14.6 7.8 54 4.8 ESE 11 17 6 9 1022.1 - 0.0
14/10:00am 16.9 14.4 8.3 57 4.4 SE 11 15 6 8 1022.1 - 0.0
14/09:30am 15.8 14.0 7.3 57 4.2 SE 6 11 3 6 1022.1 - 0.0
14/09:00am 14.2 12.1 6.8 61 3.6 S 7 9 4 5 1021.9 1021.8 0.0
14/08:30am 13.4 12.4 5.6 59 3.7 CALM 0 0 0 0 1021.8 - 0.0
14/08:00am 11.7 11.1 7.6 76 2.0 CALM 0 0 0 0 1021.5 - 0.0
14/07:30am 10.6 10.1 7.7 82 1.4 CALM 0 0 0 0 1021.1 - 0.0
14/07:00am 8.4 7.6 6.7 89 0.8 CALM 0 6 0 3 1020.9 - 0.0
14/06:30am 7.4 4.8 6.0 91 0.6 SW 9 9 5 5 1020.6 - 0.0
14/06:00am 8.4 6.2 6.4 87 0.9 SSW 7 9 4 5 1020.5 1020.3 0.0
14/05:30am 8.1 6.0 6.6 90 0.7 SSW 7 9 4 5 1020.4 - 0.0
14/05:00am 8.1 5.6 6.7 91 0.7 S 9 11 5 6 1020.2 - 0.0
14/04:30am 9.0 6.7 7.6 91 0.7 S 9 9 5 5 1020.0 - 0.0
14/04:00am 9.3 7.5 7.9 91 0.7 SSW 7 7 4 4 1019.9 - 0.0
14/03:30am 9.2 7.4 7.3 88 0.9 SW 6 7 3 4 1019.7 - 0.0
14/03:00am 9.3 7.4 7.6 89 0.8 SSW 7 9 4 5 1019.7 1019.5 0.0
14/02:30am 9.4 7.2 7.7 89 0.8 SSW 9 9 5 5 1019.8 - 0.0
14/02:00am 10.4 8.6 8.0 85 1.2 SW 7 7 4 4 1019.9 - 0.0
14/01:30am 10.2 8.4 7.8 85 1.2 SSW 7 9 4 5 1019.9 - 0.0
14/01:00am 11.4 9.5 7.7 78 1.8 S 7 9 4 5 1019.9 - 0.0
14/12:30am 12.9 10.5 8.6 75 2.2 S 11 13 6 7 1019.8 - 0.0
14/12:00am 13.3 11.4 9.0 75 2.2 SSE 9 13 5 7 1019.7 1019.5 0.0

Other Formats:

Comma delimited format used in spreadsheet applications
http://www.bom.gov.au/fwo/IDV60801/IDV60801.94889.axf

JavaScript Object Notation format (JSON) in row-major order
http://www.bom.gov.au/fwo/IDV60801/IDV60801.94889.json